Startpagina
METAR-TAF:

METAR-TAF

Vliegvelden :

Luchthaven Franjo Tuđman Zagreb

Zagreb, Kroatië

breedte: 45-44N, lengte: 016-04E, hoogte: 106 m

Actueel weer

Dit bericht is 34 minuten geleden gemaakt, om 23:00 UTC
Wind 3 kt uit het westzuidwesten
Temperatuur 17°C
Vochtigheid 82%
Druk 1021 hPa
Zicht 10 km of meer
Weinig wolken op 4500 ft

METAR: LDZA 262300Z 24003KT 9999 FEW045 17/14 Q1021 NOSIG

Tijdstip: 01:34 (23:34 UTC)

Verwachting

Dit bericht is 6 uur en het 9 minuten geleden gemaakt, om 17:25 UTC
Verwachting geldig van 26 om 18 UTC tot 27 om 18 UTC
Wind 4 kt uit het oostnoordoosten
Zicht 10 km of meer
Verspreide wolken op 4000 ft
Kans 30% :
Tijdelijke
van 27 om 03 UTC tot 27 om 06 UTC
Zicht: 3000 m
nevel
Kans 30% :
Tijdelijke
van 27 om 11 UTC tot 27 om 16 UTC
Wind 15 kt uit variabele richting
Weinig wolken op 3500 ft, Stapelwolken.
Verspreide wolken op 4000 ft

TAF: LDZA 261725Z 2618/2718 07004KT 9999 SCT040 TX28/2713Z TN15/2703Z PROB30 TEMPO 2703/2706 3000 BR PROB30 TEMPO 2711/2716 VRB15KT FEW035TCU SCT040

Waarnemingen en weersverwachtingen van meer dan 4000 vliegvelden (METAR en TAF).

De beschikbare stations zijn de gele en rode punten op de kaart.

Ga met uw muis naar het station om de naam te zien.

Klik dan om waarnemingen en weersverwachtingen te zien.

kaart wijzigen: klik op de groene knoppen met een zwart kruis om in te zoomen, op de groene knop met een streepje om uit te zoomen of op de groene pijlen voor aangrenzende kaarten.


METAR-TAF: